タヒチ島 の空港の天気 - METARとTAF

タヒチ・ファアア国際空港 ( NTAA / PPT ) - フランス領ポリネシア タヒチ島
飛行場実況気象(Metar)
観測時間06/25 03:00 TAHT (06/25 13:00 UTC)
風向・風速不定 2m/s
視程10km以上
天気現象
少しの雲 雲底高度 640m
全天の8割程度の雲 雲底高度 1310m
気温25℃
湿度78%
気圧1015hPa
METARNTAA 251300Z VRB03KT 9999 FEW021 BKN043 25/21 Q1015 NOSIG
過去の天気等 Google飛行場航空写真 Wunderground天気予報

過去48時間のMETAR

飛行場予報(TAF)
発表時間: 6/25 01:00 TAHT (6/25 11:00 UTC)
予報対象時間: 25日2時 TAHT ~ 26日8時 TAHT
風向・風速不定 1m/s
視程10km以上
少しの雲 雲底高度 700m
全天の4割程度の雲 雲底高度 1830m
25日9時 TAHT ~ 25日10時 TAHT に徐々に
風向・風速南西 6m/s
25日10時 TAHT ~ 25日12時 TAHT に徐々に
全天の4割程度の雲 雲底高度 550m
全天の8割程度の雲 雲底高度 1220m
25日18時 TAHT ~ 25日20時 TAHT に徐々に
風向・風速不定 1m/s
25日22時 TAHT ~ 25日24時 TAHT に徐々に
少しの雲 雲底高度 760m
TAF NTAA 251100Z 2512/2618 VRB02KT 9999 FEW023 SCT060
BECMG 2519/2520 22012KT
BECMG 2520/2522 SCT018 BKN040
BECMG 2604/2606 VRB02KT
BECMG 2608/2610 FEW025